• Join FlightAware (Why Join?)
  • Login
  • US Flag 
09:29PM EDT


 

Airport Tracker/Info


-or-


 

Live Flight TrackerFlight Track Log ✈ SWA3390 ✈ 17-Jul-2013 ✈ KALB - KFLL

Flight Track Log - Related Links

Times and Time Zones

All times are in EDT time to prevent confusion due to time zone crossing. See the SWA3390 flight status page for this flight to view local times or setup timezone preferences in your user account.

Time Position Orientation Groundspeed Altitude Reporting Facility
EDT Latitude Longitude Course Direction KTS MPH feet Rate Location/Type
11:32AM 42.8720 -73.8940 316° Northwest 233 268 7,100  Level FlightAware
11:33AM 42.8980 -73.9260 318° Northwest 239 275 9,100 3,000 Climbing FlightAware
11:33AM 42.9330 -73.9740 315° West 289 333 10,600 2,460 Climbing FlightAware
11:34AM 42.9740 -74.0290 316° Northwest 321 369 12,400 3,240 Climbing FlightAware
11:35AM 43.0220 -74.0940 315° West 332 382 15,000 2,400 Climbing FlightAware
11:35AM 43.0600 -74.1490 313° West 342 394 15,800 1,200 Climbing FlightAware
11:35AM 43.0670 -74.1760 290° West 349 402 16,000 2,400 Climbing FlightAware
11:36AM 43.0430 -74.2500 246° West 380 437 17,800 2,880 Climbing FlightAware
11:37AM 42.9630 -74.3200 213° Southwest 403 464 20,200 2,820 Climbing FlightAware
11:38AM 42.8920 -74.3790 211° Southwest 420 483 22,100 2,520 Climbing FlightAware
11:38AM 42.8670 -74.3860 192° South 426 490 22,600 1,860 Climbing FlightAware
11:38AM 42.8360 -74.3810 173° South 433 498 23,000 1,980 Climbing FlightAware
11:39AM 42.7460 -74.3280 157° South 438 504 24,800 2,280 Climbing FlightAware
11:40AM 42.6670 -74.2870 159° South 445 512 26,500 2,220 Climbing FlightAware
11:41AM 42.5630 -74.2430 163° South 454 522 28,300 1,380 Climbing FlightAware
11:42AM 42.4220 -74.2130 171° South 462 532 29,400 600 Climbing FlightAware
11:42AM 42.3610 -74.2000 171° South 462 532 29,400 2,820 Level FlightAware
11:43AM 42.2310 -74.1720 171° South 468 539 33,400 2,640 Climbing FlightAware
11:44AM 42.1610 -74.1550 170° South 468 539 33,400 2,280 Level FlightAware
11:44AM 42.0670 -74.1740 189° South 449 517 36,300 2,520 Climbing FlightAware
11:45AM 41.9830 -74.2040 195° South 446 513 36,900 1,500 Climbing FlightAware
11:46AM 41.9040 -74.2310 194° South 445 512 38,400 1,800 Climbing FlightAware
11:46AM 41.8300 -74.2560 194° South 446 513 39,100 1,140 Climbing FlightAware
11:47AM 41.7470 -74.2840 194° South 445 512 39,900 600 Climbing FlightAware
11:48AM 41.6700 -74.3110 195° South 446 513 40,000 60 Climbing FlightAware
11:48AM 41.5910 -74.3380 194° South 445 512 40,000  Level FlightAware
11:49AM 41.5090 -74.3670 195° South 444 511 40,000  Level FlightAware
11:50AM 41.4290 -74.3950 195° South 443 510 40,000  Level FlightAware
11:50AM 41.3420 -74.4260 195° South 443 510 40,000  Level FlightAware
11:51AM 41.2690 -74.4510 194° South 443 510 40,000  Level FlightAware
11:52AM 41.1750 -74.4830 194° South 442 509 40,000  Level FlightAware
11:53AM 41.1020 -74.5090 195° South 441 507 40,000  Level FlightAware
11:53AM 41.0200 -74.5360 194° South 441 507 40,000  Level FlightAware
11:54AM 40.9370 -74.5650 195° South 440 506 40,000  Level FlightAware
11:55AM 40.8550 -74.5930 194° South 441 507 40,000  Level FlightAware
11:55AM 40.7800 -74.6180 194° South 440 506 40,000  Level FlightAware
11:56AM 40.6910 -74.6490 195° South 442 509 40,000  Level FlightAware
11:57AM 40.6180 -74.6740 195° South 443 510 40,000  Level FlightAware
11:57AM 40.5230 -74.7050 194° South 445 512 40,000  Level FlightAware
11:58AM 40.4590 -74.7270 195° South 446 513 40,000  Level FlightAware
11:59AM 40.3760 -74.7550 194° South 446 513 40,000  Level FlightAware
11:59AM 40.2870 -74.7850 194° South 447 514 40,000  Level FlightAware
12:02PM 39.9890 -74.8830 194° South 448 516 40,000  Level FlightAware
12:03PM 39.8460 -74.9320 195° South 444 511 40,000  Level FlightAware
12:04PM 39.7680 -74.9570 194° South 435 501 40,000  Level FlightAware
12:05PM 39.6620 -74.9930 195° South 434 499 40,000  Level FlightAware
12:06PM 39.5430 -75.0310 194° South 443 510 40,000  Level FlightAware
12:06PM 39.4740 -75.0540 194° South 444 511 40,000  Level FlightAware
12:07PM 39.3920 -75.0810 194° South 444 511 40,000  Level FlightAware
12:08PM 39.2880 -75.1160 195° South 445 512 40,000  Level FlightAware
12:09PM 39.1940 -75.1560 198° South 446 513 40,000  Level FlightAware
12:09PM 39.1150 -75.1890 198° South 447 514 40,000  Level FlightAware
12:10PM 39.0010 -75.2370 198° South 447 514 40,000  Level FlightAware
12:12PM 38.8310 -75.3080 198° South 449 517 40,000  Level FlightAware
12:12PM 38.7260 -75.3520 198° South 449 517 40,000  Level FlightAware
12:13PM 38.6210 -75.3960 198° South 449 517 40,000  Level FlightAware
12:14PM 38.5390 -75.4300 198° South 447 514 40,000  Level FlightAware
12:15PM 38.4640 -75.4620 198° South 444 511 40,000  Level FlightAware
12:15PM 38.3830 -75.4950 198° South 443 510 40,000  Level FlightAware
12:16PM 38.2980 -75.5310 198° South 442 509 40,000  Level FlightAware
12:17PM 38.2060 -75.5710 199° South 439 505 40,000  Level FlightAware
12:17PM 38.1390 -75.6020 200° South 433 498 40,000  Level FlightAware
12:18PM 38.0680 -75.6380 202° Southwest 432 497 40,000  Level FlightAware
12:19PM 37.9700 -75.6860 201° Southwest 433 498 40,000  Level FlightAware
12:23PM 37.5120 -75.9050 201° Southwest 434 499 40,000  Level FlightAware
12:24PM 37.4170 -75.9510 201° Southwest 434 499 40,000  Level FlightAware
12:25PM 37.3310 -75.9920 201° Southwest 431 496 40,000  Level FlightAware
12:25PM 37.2770 -76.0170 200° South 431 496 40,000  Level FlightAware
12:26PM 37.2140 -76.0470 201° Southwest 430 495 40,000  Level FlightAware
12:26PM 37.1440 -76.0800 201° Southwest 429 494 40,000  Level FlightAware
12:27PM 37.0370 -76.1310 201° Southwest 438 504 40,000  Level FlightAware
12:28PM 36.9450 -76.1740 200° South 440 506 40,000  Level FlightAware
12:29PM 36.8440 -76.2220 201° Southwest 434 499 40,000  Level FlightAware
12:30PM 36.7690 -76.2570 200° South 443 510 40,000  Level FlightAware
12:30PM 36.6890 -76.2950 201° Southwest 443 510 40,000  Level FlightAware
12:31PM 36.5890 -76.3410 200° South 433 498 40,000  Level FlightAware
12:32PM 36.5120 -76.3770 201° Southwest 433 498 40,000  Level FlightAware
12:32PM 36.4250 -76.4170 200° South 432 497 40,000  Level FlightAware
12:33PM 36.3490 -76.4520 200° South 431 496 40,000  Level FlightAware
12:34PM 36.2640 -76.4920 201° Southwest 431 496 40,000  Level FlightAware
12:35PM 36.1780 -76.5310 200° South 430 495 40,000  Level FlightAware
12:35PM 36.1120 -76.5610 200° South 430 495 40,000  Level FlightAware
12:36PM 36.0270 -76.6000 200° South 428 493 40,000  Level FlightAware
12:37PM 35.9810 -76.6210 200° South 428 493 40,000  Level FlightAware
12:37PM 35.9040 -76.6560 200° South 427 491 40,000  Level FlightAware
12:38PM 35.8380 -76.6860 200° South 427 491 40,000  Level FlightAware
12:39PM 35.7620 -76.7200 200° South 427 491 40,000  Level FlightAware
12:39PM 35.6870 -76.7540 200° South 427 491 40,000  Level FlightAware
12:40PM 35.6300 -76.7800 200° South 427 491 40,000  Level FlightAware
12:41PM 35.5540 -76.8130 199° South 427 491 40,000  Level FlightAware
12:41PM 35.4960 -76.8400 201° Southwest 427 491 40,000  Level FlightAware
12:42PM 35.4200 -76.8730 199° South 427 491 40,000  Level FlightAware
12:43PM 35.3620 -76.9000 201° Southwest 427 491 40,000  Level FlightAware
12:44PM 35.2890 -76.9320 200° South 427 491 40,000  Level FlightAware
12:44PM 35.2320 -76.9570 200° South 427 491 40,000  Level FlightAware
12:45PM 35.1720 -76.9840 200° South 427 491 40,000  Level FlightAware
12:46PM 35.1000 -77.0160 200° South 427 491 40,000  Level FlightAware
12:46PM 35.0590 -77.0340 200° South 427 491 40,000  Level FlightAware
12:47PM 34.9830 -77.0680 200° South 427 491 40,000  Level FlightAware
12:48PM 34.6931 -77.2011 200° South 435 501 40,000  Level Washington Center
12:49PM 34.5797 -77.2519 200° South 435 501 40,000  Level Washington Center
12:50PM 34.4664 -77.3025 200° South 435 501 40,000  Level Washington Center
12:51PM 34.3550 -77.3531 201° Southwest 435 501 40,000  Level Washington Center
12:52PM 34.2436 -77.3983 199° South 430 495 40,000  Level Washington Center
12:53PM 34.1283 -77.4486 200° South 435 501 40,000  Level Washington Center
12:54PM 33.9719 -77.5114 198° South 448 516 40,000  Level Jacksonville Center
12:55PM 33.8575 -77.5661 202° Southwest 454 522 40,000  Level Jacksonville Center
12:56PM 33.7447 -77.6128 199° South 454 522 40,000  Level Jacksonville Center
12:57PM 33.6153 -77.6631 198° South 446 513 40,000  Level Jacksonville Center
12:58PM 33.4983 -77.7122 199° South 441 507 40,000  Level Jacksonville Center
12:59PM 33.3814 -77.7614 199° South 441 507 40,000  Level Jacksonville Center
01:00PM 33.2625 -77.8078 198° South 441 507 40,000  Level Jacksonville Center
01:01PM 33.1472 -77.8517 198° South 441 507 40,000  Level Jacksonville Center
01:02PM 33.0303 -77.9003 199° South 441 507 40,000  Level Jacksonville Center
01:03PM 32.9131 -77.9464 198° South 441 507 40,000  Level Jacksonville Center
01:04PM 32.7961 -77.9950 199° South 441 507 40,000  Level Jacksonville Center
01:05PM 32.6789 -78.0431 199° South 441 507 40,000  Level Jacksonville Center
01:06PM 32.5597 -78.0889 198° South 441 507 40,000  Level Jacksonville Center
01:07PM 32.4444 -78.1319 197° South 441 507 40,000  Level Jacksonville Center
01:08PM 32.3272 -78.1822 200° South 441 507 40,000  Level Jacksonville Center
01:09PM 32.2097 -78.2228 196° South 441 507 40,000  Level Jacksonville Center
01:10PM 32.0925 -78.2706 199° South 441 507 40,000  Level Jacksonville Center
01:11PM 31.9775 -78.3178 199° South 441 507 40,000  Level Jacksonville Center
01:12PM 31.8622 -78.3628 198° South 436 502 40,000  Level Jacksonville Center
01:13PM 31.7447 -78.4075 198° South 436 502 40,000  Level Jacksonville Center
01:14PM 31.6294 -78.4497 197° South 436 502 40,000  Level Jacksonville Center
01:15PM 31.5186 -78.5061 203° Southwest 436 502 40,000  Level Jacksonville Center
01:16PM 31.4075 -78.5528 200° South 442 509 40,000  Level Jacksonville Center
01:17PM 31.2900 -78.5994 199° South 442 509 40,000  Level Jacksonville Center
01:18PM 31.1658 -78.6294 192° South 442 509 40,000  Level Jacksonville Center
01:19PM 31.0506 -78.6733 198° South 437 503 40,000  Level Jacksonville Center
01:20PM 30.9375 -78.7269 202° Southwest 437 503 40,000  Level Jacksonville Center
01:21PM 30.8261 -78.7731 200° South 437 503 40,000  Level Jacksonville Center
01:22PM 30.7169 -78.8164 199° South 432 497 40,000  Level Jacksonville Center
01:23PM 30.6036 -78.8597 198° South 429 494 40,000  Level Jacksonville Center
01:24PM 30.4919 -78.9008 198° South 419 482 40,000  Level Jacksonville Center
01:25PM 30.4092 -78.9333 199° South 426 490 40,000  Level Miami Center
01:26PM 30.2958 -78.9769 198° South 420 483 40,000  Level Miami Center
01:27PM 30.1869 -79.0156 197° South 420 483 40,000  Level Miami Center
01:28PM 30.0717 -79.0611 199° South 425 489 40,000  Level Miami Center
01:29PM 29.9772 -79.1000 200° South 427 491 40,000  Level Miami Center
01:30PM 29.8617 -79.1431 198° South 421 484 40,000  Level Miami Center
01:31PM 29.7486 -79.1739 193° South 421 484 40,000  Level Miami Center
01:32PM 29.6314 -79.2003 191° South 421 484 40,000  Level Miami Center
01:33PM 29.5203 -79.2358 196° South 427 491 40,000  Level Miami Center
01:34PM 29.3989 -79.2594 190° South 432 497 40,000  Level Miami Center
01:35PM 29.2836 -79.2903 193° South 432 497 40,000  Level Miami Center
01:36PM 29.1683 -79.3208 193° South 432 497 40,000  Level Miami Center
01:37PM 29.0511 -79.3517 193° South 427 491 40,000  Level Miami Center
01:38PM 28.9317 -79.3772 191° South 433 498 40,000  Level Miami Center
01:39PM 28.8164 -79.4056 192° South 428 493 40,000  Level Miami Center
01:40PM 28.7075 -79.4361 194° South 428 493 40,000  Level Miami Center
01:41PM 28.5922 -79.4642 192° South 422 486 40,000 -120 Level Miami Center
01:47PM 27.9610 -79.6170 192° South 393 452 39,400 -360 Descending FlightAware
01:47PM 27.8940 -79.6340 193° South 391 450 37,900 -2,460 Descending FlightAware
01:48PM 27.8180 -79.6520 192° South 394 453 36,100 -2,880 Descending FlightAware
01:49PM 27.7460 -79.6700 192° South 409 471 34,000 -3,120 Descending FlightAware
01:49PM 27.6590 -79.6910 192° South 425 489 31,700 -2,940 Descending FlightAware
01:50PM 27.5770 -79.7110 192° South 422 486 29,700 -2,700 Descending FlightAware
01:51PM 27.5040 -79.7280 192° South 417 480 28,100 -2,460 Descending FlightAware
01:51PM 27.4210 -79.7480 192° South 413 475 26,300 -2,460 Descending FlightAware
01:52PM 27.3440 -79.7670 192° South 408 470 24,600 -1,740 Descending FlightAware
01:53PM 27.2670 -79.7850 192° South 389 448 23,900 -1,080 Descending FlightAware
01:54PM 27.1980 -79.8100 198° South 398 458 23,200 -1,020 Descending FlightAware
01:54PM 27.1210 -79.8430 201° Southwest 398 458 22,500 -960 Descending FlightAware
01:55PM 27.0430 -79.8770 201° Southwest 394 453 21,800 -1,500 Descending FlightAware
01:56PM 26.9760 -79.9140 206° Southwest 391 450 20,400 -2,160 Descending FlightAware
01:56PM 26.9160 -79.9480 207° Southwest 383 441 19,000 -2,100 Descending FlightAware
01:57PM 26.8450 -79.9880 207° Southwest 372 428 17,500 -2,160 Descending FlightAware
01:58PM 26.7890 -80.0220 208° Southwest 365 420 16,100 -2,340 Descending FlightAware
01:58PM 26.7200 -80.0590 206° Southwest 360 414 14,300 -2,520 Descending FlightAware
01:59PM 26.6260 -80.0710 187° South 351 404 11,800 -2,280 Descending FlightAware
02:00PM 26.5620 -80.0690 178° South 330 380 10,700 -1,200 Descending FlightAware
02:01PM 26.5020 -80.0670 178° South 297 342 10,200 -960 Descending FlightAware
02:01PM 26.4700 -80.0650 177° South 290 334 9,700 -1,200 Descending FlightAware
02:02PM 26.4350 -80.0630 177° South 281 323 9,200 -1,320 Descending FlightAware
02:02PM 26.4170 -80.0630 180° South 279 321 8,800 -1,560 Descending FlightAware
02:02PM 26.3800 -80.0610 177° South 275 316 8,100 -1,440 Descending FlightAware
02:03PM 26.3650 -80.0600 177° South 271 312 7,900 -540 Descending FlightAware
02:03PM 26.3330 -80.0590 178° South 267 307 7,800 -180 Descending FlightAware
02:03PM 26.3190 -80.0590 180° South 269 310 7,800  Level FlightAware
02:04PM 26.2830 -80.0570 177° South 273 314 7,800  Level FlightAware
02:04PM 26.2500 -80.0560 178° South 276 318 7,800 -240 Level FlightAware
02:05PM 26.2130 -80.0590 184° South 279 321 7,600 -1,020 Descending FlightAware
02:05PM 26.1850 -80.0820 216° Southwest 280 322 6,900 -1,620 Descending FlightAware
02:06PM 26.1580 -80.1150 228° Southwest 283 326 6,100 -1,260 Descending FlightAware
02:06PM 26.1560 -80.1330 263° West 276 318 6,000 -480 Descending FlightAware
02:06PM 26.1540 -80.1710 267° West 259 298 5,800 -540 Descending FlightAware
02:06PM 26.1530 -80.1950 267° West 251 289 5,600 -720 Descending FlightAware
02:07PM 26.1520 -80.2170 267° West 244 281 5,400 -900 Descending FlightAware
02:07PM 26.1500 -80.2530 266° West 242 278 4,900 -540 Descending FlightAware
02:08PM 26.1480 -80.2820 266° West 242 278 4,900 -900 Level FlightAware
02:12PM 26.0770 -80.2170 141° Southeast 123 142 700 -900 Descending FlightAware
02:12PM 26.0770 -80.1980 90° East 123 142 700 -660 Level FlightAware
02:13PM 26.0770 -80.1800 90° East 127 146 100 -660 Descending FlightAware
02:13PM 26.0770 -80.1610 90° East 127 146 100  Level FlightAware
02:20PM 26.0667 -80.1500 103° East  Level FlightAware Approximate
02:21PM 26.0726 -80.1527 103° East  Level Estimated